createdAt,value
2019-04-11T00:01:48.241Z,95143.00
2019-04-11T00:07:16.238Z,95137.00
2019-04-11T00:12:46.426Z,95140.00
2019-04-11T00:18:16.702Z,95137.00
2019-04-11T00:23:46.365Z,95137.00
2019-04-11T00:29:17.091Z,95137.00
2019-04-11T00:34:46.991Z,95141.00
2019-04-11T00:40:17.492Z,95135.00
2019-04-11T00:45:47.768Z,95136.00
2019-04-11T00:51:18.449Z,95144.00
2019-04-11T00:56:48.455Z,95142.00
2019-04-11T01:02:18.053Z,95146.00
2019-04-11T01:07:47.374Z,95143.00
2019-04-11T01:13:18.685Z,95153.00
2019-04-11T01:18:48.103Z,95160.00
2019-04-11T01:24:17.753Z,95167.00
2019-04-11T01:29:47.406Z,95172.00
2019-04-11T01:35:17.287Z,95169.00
2019-04-11T01:40:47.737Z,95182.00
2019-04-11T01:46:18.125Z,95189.00
2019-04-11T01:51:47.677Z,95185.00
2019-04-11T01:57:18.006Z,95193.00
2019-04-11T02:02:49.104Z,95188.00
2019-04-11T02:08:19.518Z,95204.00
2019-04-11T02:13:48.904Z,95201.00
2019-04-11T02:19:18.799Z,95212.00
2019-04-11T02:24:52.567Z,95210.00
2019-04-11T02:30:22.746Z,95216.00
2019-04-11T02:35:54.049Z,95220.00
2019-04-11T02:41:25.391Z,95218.00
2019-04-11T02:47:03.278Z,95234.00
2019-04-11T02:52:27.545Z,95223.00
2019-04-11T02:57:59.117Z,95217.00
2019-04-11T03:03:29.823Z,95224.00
2019-04-11T03:08:59.812Z,95232.00
2019-04-11T03:14:44.815Z,95239.00
2019-04-11T03:20:13.138Z,95237.00
2019-04-11T03:25:33.039Z,95236.00
2019-04-11T03:31:32.657Z,95237.00
2019-04-11T03:37:13.680Z,95239.00
2019-04-11T03:42:21.629Z,95241.00
2019-04-11T03:47:50.539Z,95237.00
2019-04-11T03:53:10.952Z,95248.00
2019-04-11T03:58:41.726Z,95251.00
2019-04-11T04:04:13.164Z,95252.00
2019-04-11T04:09:45.705Z,95267.00
2019-04-11T04:15:35.892Z,95266.00
2019-04-11T04:21:04.108Z,95275.00
2019-04-11T04:26:33.781Z,95287.00
2019-04-11T04:32:05.415Z,95285.00
2019-04-11T04:37:38.614Z,95292.00
2019-04-11T04:43:10.509Z,95291.00
2019-04-11T04:48:42.537Z,95293.00
2019-04-11T04:54:12.152Z,95295.00
2019-04-11T04:59:42.552Z,95302.00
2019-04-11T05:05:13.627Z,95304.00
2019-04-11T05:10:44.933Z,95306.00
2019-04-11T05:16:17.651Z,95293.00
2019-04-11T05:21:45.696Z,95310.00
2019-04-11T05:27:15.042Z,95315.00
2019-04-11T05:32:45.174Z,95307.00
2019-04-11T05:38:14.718Z,95320.00
2019-04-11T05:43:45.188Z,95306.00
2019-04-11T05:49:16.912Z,95318.00
2019-04-11T05:54:49.788Z,95311.00
2019-04-11T06:00:23.824Z,95323.00
2019-04-11T06:05:59.819Z,95325.00
2019-04-11T06:11:34.917Z,95324.00
2019-04-11T06:17:07.201Z,95335.00
2019-04-11T06:22:38.530Z,95330.00
2019-04-11T06:28:12.455Z,95330.00
2019-04-11T06:33:44.770Z,95336.00
2019-04-11T06:39:25.452Z,95339.00
2019-04-11T06:44:56.518Z,95346.00
2019-04-11T06:50:33.564Z,95336.00
2019-04-11T06:56:19.572Z,95346.00
2019-04-11T07:01:49.247Z,95356.00
2019-04-11T07:07:20.583Z,95364.00
2019-04-11T07:12:54.403Z,95360.00
2019-04-11T07:18:37.840Z,95365.00
2019-04-11T07:24:24.738Z,95369.00
2019-04-11T07:30:11.684Z,95362.00
2019-04-11T07:35:45.263Z,95376.00
2019-04-11T07:41:19.539Z,95380.00
2019-04-11T07:47:13.587Z,95390.00
2019-04-11T07:52:35.945Z,95391.00
2019-04-11T07:58:21.936Z,95393.00
2019-04-11T08:03:53.612Z,95398.00
2019-04-11T08:09:28.893Z,95402.00
2019-04-11T08:15:00.043Z,95402.00
2019-04-11T08:20:43.603Z,95407.00
2019-04-11T08:26:30.804Z,95397.00
2019-04-11T08:32:02.665Z,95409.00
2019-04-11T08:37:45.878Z,95411.00
2019-04-11T08:43:17.189Z,95413.00
2019-04-11T08:48:51.328Z,95413.00
2019-04-11T08:54:22.357Z,95417.00
2019-04-11T09:00:02.266Z,95409.00
2019-04-11T09:05:36.055Z,95420.00
2019-04-11T09:11:08.598Z,95423.00
2019-04-11T09:16:42.581Z,95427.00
2019-04-11T09:22:13.700Z,95433.00
2019-04-11T09:27:44.758Z,95439.00
2019-04-11T09:33:17.182Z,95448.00
2019-04-11T09:38:49.363Z,95446.00
2019-04-11T09:44:20.856Z,95444.00
2019-04-11T09:49:55.839Z,95441.00
2019-04-11T09:55:35.826Z,95435.00
2019-04-11T10:01:10.279Z,95435.00
2019-04-11T10:06:41.381Z,95445.00
2019-04-11T10:12:29.703Z,95441.00
2019-04-11T10:18:01.064Z,95449.00
2019-04-11T10:23:32.672Z,95451.00
2019-04-11T10:29:06.478Z,95447.00
2019-04-11T10:34:50.054Z,95458.00
2019-04-11T10:40:21.639Z,95446.00
2019-04-11T10:46:02.796Z,95454.00
2019-04-11T10:51:38.169Z,95445.00
2019-04-11T10:57:09.979Z,95451.00
2019-04-11T11:02:47.465Z,95460.00
2019-04-11T11:08:21.630Z,95458.00
2019-04-11T11:13:52.703Z,95462.00
2019-04-11T11:19:40.338Z,95449.00
2019-04-11T11:25:15.139Z,95446.00
2019-04-11T11:30:54.146Z,95454.00
2019-04-11T11:36:25.703Z,95454.00
2019-04-11T11:42:02.589Z,95463.00
2019-04-11T11:47:49.407Z,95463.00
2019-04-11T11:53:25.792Z,95465.00
2019-04-11T11:59:09.126Z,95478.00
2019-04-11T12:04:56.082Z,95472.00
2019-04-11T12:10:32.505Z,95475.00
2019-04-11T12:16:21.298Z,95483.00
2019-04-11T12:21:51.509Z,95476.00
2019-04-11T12:27:26.826Z,95480.00
2019-04-11T12:32:59.224Z,95484.00
2019-04-11T12:38:48.338Z,95493.00
2019-04-11T12:44:21.870Z,95491.00
2019-04-11T12:49:53.476Z,95490.00
2019-04-11T12:55:24.760Z,95480.00
2019-04-11T13:01:02.590Z,95485.00
2019-04-11T13:06:36.874Z,95491.00
2019-04-11T13:12:08.161Z,95491.00
2019-04-11T13:17:39.299Z,95494.00
2019-04-11T13:23:13.292Z,95491.00
2019-04-11T13:28:44.438Z,95491.00
2019-04-11T13:34:15.703Z,95489.00
2019-04-11T13:39:46.769Z,95490.00
2019-04-11T13:45:16.277Z,95495.00
2019-04-11T13:50:46.109Z,95502.00
2019-04-11T13:56:15.771Z,95497.00
2019-04-11T14:01:47.000Z,95493.00
2019-04-11T14:07:23.438Z,95491.00
2019-04-11T14:12:53.921Z,95497.00
2019-04-11T14:18:34.193Z,95497.00
2019-04-11T14:24:11.686Z,95498.00
2019-04-11T14:29:43.324Z,95500.00
2019-04-11T14:35:29.818Z,95501.00
2019-04-11T14:41:11.879Z,95504.00
2019-04-11T14:46:58.270Z,95513.00
2019-04-11T14:52:31.777Z,95512.00
2019-04-11T14:58:23.559Z,95508.00
2019-04-11T15:03:57.501Z,95506.00
2019-04-11T15:09:46.780Z,95513.00
2019-04-11T15:15:26.552Z,95512.00
2019-04-11T15:21:13.787Z,95520.00
2019-04-11T15:26:51.064Z,95520.00
2019-04-11T15:32:24.933Z,95517.00
2019-04-11T15:38:12.338Z,95524.00
2019-04-11T15:43:49.700Z,95534.00
2019-04-11T15:49:29.603Z,95534.00
2019-04-11T15:55:10.837Z,95533.00
2019-04-11T16:00:44.943Z,95530.00
2019-04-11T16:06:34.773Z,95539.00
2019-04-11T16:12:05.420Z,95535.00
2019-04-11T16:17:45.294Z,95544.00
2019-04-11T16:23:19.211Z,95547.00
2019-04-11T16:28:56.083Z,95548.00
2019-04-11T16:34:27.081Z,95548.00
2019-04-11T16:40:14.157Z,95554.00
2019-04-11T16:45:54.651Z,95546.00
2019-04-11T16:51:30.737Z,95557.00
2019-04-11T16:56:54.107Z,95553.00
2019-04-11T17:02:24.257Z,95558.00
2019-04-11T17:07:56.728Z,95561.00
2019-04-11T17:13:27.322Z,95557.00
2019-04-11T17:18:57.099Z,95569.00
2019-04-11T17:24:37.480Z,95558.00
2019-04-11T17:30:08.571Z,95567.00
2019-04-11T17:35:38.126Z,95567.00
2019-04-11T17:41:10.896Z,95567.00
2019-04-11T17:46:39.087Z,95572.00
2019-04-11T17:52:09.071Z,95577.00
2019-04-11T17:57:38.692Z,95584.00
2019-04-11T18:03:11.742Z,95589.00
2019-04-11T18:08:39.982Z,95593.00
2019-04-11T18:14:09.488Z,95599.00
2019-04-11T18:19:39.299Z,95603.00
2019-04-11T18:25:09.071Z,95605.00
2019-04-11T18:30:38.546Z,95617.00
2019-04-11T18:36:08.245Z,95624.00
2019-04-11T18:41:40.008Z,95629.00
2019-04-11T18:47:09.915Z,95632.00
2019-04-11T18:52:40.262Z,95640.00
2019-04-11T18:58:09.978Z,95642.00
2019-04-11T19:03:41.376Z,95644.00
2019-04-11T19:09:14.149Z,95653.00
2019-04-11T19:14:46.060Z,95663.00
2019-04-11T19:20:18.887Z,95661.00
2019-04-11T19:25:47.446Z,95670.00
2019-04-11T19:31:16.874Z,95656.00
2019-04-11T19:36:46.453Z,95665.00
2019-04-11T19:42:19.542Z,95669.00
2019-04-11T19:47:49.506Z,95664.00
2019-04-11T19:53:18.222Z,95673.00
2019-04-11T19:58:47.645Z,95667.00
2019-04-11T20:04:17.131Z,95663.00
2019-04-11T20:09:46.758Z,95664.00
2019-04-11T20:15:16.161Z,95656.00
2019-04-11T20:20:45.651Z,95659.00
2019-04-11T20:26:15.027Z,95658.00
2019-04-11T20:31:47.037Z,95669.00
2019-04-11T20:37:16.435Z,95667.00
2019-04-11T20:42:45.822Z,95662.00
2019-04-11T20:48:15.245Z,95664.00
2019-04-11T20:53:44.843Z,95666.00
2019-04-11T20:59:14.372Z,95674.00
2019-04-11T21:04:44.078Z,95671.00
2019-04-11T21:10:13.773Z,95672.00
2019-04-11T21:15:45.399Z,95667.00
2019-04-11T21:21:14.950Z,95672.00
2019-04-11T21:26:44.545Z,95675.00
2019-04-11T21:32:14.171Z,95672.00
2019-04-11T21:37:43.604Z,95673.00
2019-04-11T21:43:13.176Z,95676.00
2019-04-11T21:48:43.982Z,95669.00
2019-04-11T21:54:15.115Z,95680.00
2019-04-11T21:59:44.790Z,95677.00
2019-04-11T22:05:14.469Z,95672.00
2019-04-11T22:10:44.330Z,95667.00
2019-04-11T22:16:14.457Z,95663.00
2019-04-11T22:21:45.386Z,95666.00
2019-04-11T22:27:15.561Z,95671.00
2019-04-11T22:32:46.732Z,95666.00
2019-04-11T22:38:16.166Z,95667.00
2019-04-11T22:43:45.731Z,95669.00
2019-04-11T22:49:15.157Z,95671.00
2019-04-11T22:54:44.858Z,95672.00
2019-04-11T23:00:15.736Z,95668.00
2019-04-11T23:05:46.940Z,95666.00
2019-04-11T23:11:16.431Z,95665.00
2019-04-11T23:16:45.855Z,95662.00
2019-04-11T23:22:15.307Z,95667.00
2019-04-11T23:27:44.716Z,95657.00
2019-04-11T23:33:24.253Z,95662.00
2019-04-11T23:38:55.723Z,95658.00
2019-04-11T23:44:26.069Z,95658.00
2019-04-11T23:49:56.154Z,95658.00
2019-04-11T23:55:27.867Z,95657.00
